Brewster, MA

4:35 AM EDT on October 01, 2014 (GMT -0400)
RobDen | Change Station
CLOSE
Current Station
Personal Weather Station
Location: Brewster, MA
Elevation: 39 ft
Nearby Weather Stations

Elev 39 ft 41.77 °N, 70.07 °W | Updated 4 minutes ago

Rain
Rain
61.9 °F
Feels Like 61.9 °F
N
3.0
Wind Variable Wind from ENE
Gusts 10.0 mph

Today
High -- | Low -- °F
--% Chance of Precip.
Yesterday
High -- | Low -- °F
Precip. -- in
6:37 AM 6:22 PM
Waxing Crescent, 45% visible
Pressure 29.97 in
Visibility 0.8 miles
Clouds
Dew Point 62 °F
Humidity 99%
Rainfall 0.02 in
Snow Depth Not available.
UV Not available.
Pollen 1.20 out of 12
Air Quality Not available.
Flu Activity Not available.
METAR KCQX 010752Z AUTO 04008KT 3/4SM -RA BR VV002 16/16 A2997 RMK AO2 RAB37 SLP148 P0000 T01610161

More Conditions Fewer Conditions

Pressure 29.97 in
Visibility 0.8 miles
Clouds
Dew Point 62 °F
Humidity 99%
Rainfall 0.02 in
Snow Depth Not available.
UV Not available.
Pollen 1.20 out of 12
Air Quality Not available.
Flu Activity Not available.
METAR KCQX 010752Z AUTO 04008KT 3/4SM -RA BR VV002 16/16 A2997 RMK AO2 RAB37 SLP148 P0000 T01610161

More Conditions Fewer Conditions

10-Day Weather Forecast

Almanac

Astronomy

Oct. 01, 2014 Rise Set
Actual Time 6:37 AM EDT 6:22 PM EDT
Civil Twilight 6:09 AM EDT 6:49 PM EDT
Nautical Twilight 5:37 AM EDT 7:21 PM EDT
Astronomical Twilight 5:04 AM EDT 7:54 PM EDT
Moon 1:38 PM EDT 11:47 PM EDT
Length of Visible Light 12h 40m
Length of Day
11h 44m
Tomorrow will be 2m 45s shorter.
Waxing Crescent, 45% of the Moon is Illuminated
Today
Waxing Crescent
Oct 1
First Quarter
Oct 8
Full
Oct 15
Last Quarter
Oct 23
New

Today's Extremes

State Highs State Lows

Community

WunderPhotos

Upload Photos

1,757,902 photos uploaded!

Nearby

Air Quality

  Air Quality AQ Index Pollutant
Yesterday Good
OZONE
Wednesday Good
PM2.5
Wednesday Good
OZONE

Snow Depth

Station Depth Elevation
No new snow has been reported.

Earthquake Activity

City Distance Mag. Time & Date
No recent earthquake activity has been reported nearby.
Minimum magnitude displayed is 2.5.

Coastal Water Temperatures

Place Temperature
Woods Hole, MA 66.9 °F
Nantucket Island, MA 66.0 °F
Boston, MA 62.1 °F
Fall River, MA 68.0 °F

Nearby Weather Stations